sensor_id;sensor_type;location;lat;lon;timestamp;P1;durP1;ratioP1;P2;durP2;ratioP2
60292;SDS011;52402;52.670;6.750;2023-08-24T00:00:49;0.20;;;0.20;;
60292;SDS011;52402;52.670;6.750;2023-08-24T00:03:16;0.20;;;0.20;;
60292;SDS011;52402;52.670;6.750;2023-08-24T00:05:41;0.20;;;0.20;;
60292;SDS011;52402;52.670;6.750;2023-08-24T00:08:08;0.20;;;0.20;;
60292;SDS011;52402;52.670;6.750;2023-08-24T00:10:34;0.30;;;0.30;;
60292;SDS011;52402;52.670;6.750;2023-08-24T00:13:01;0.20;;;0.20;;
60292;SDS011;52402;52.670;6.750;2023-08-24T00:15:27;0.20;;;0.20;;
60292;SDS011;52402;52.670;6.750;2023-08-24T00:17:53;0.20;;;0.20;;
60292;SDS011;52402;52.670;6.750;2023-08-24T00:20:19;0.30;;;0.30;;
60292;SDS011;52402;52.670;6.750;2023-08-24T00:22:45;0.20;;;0.20;;
60292;SDS011;52402;52.670;6.750;2023-08-24T00:25:11;0.20;;;0.20;;
60292;SDS011;52402;52.670;6.750;2023-08-24T00:27:37;0.20;;;0.20;;
60292;SDS011;52402;52.670;6.750;2023-08-24T00:30:03;0.20;;;0.20;;
60292;SDS011;52402;52.670;6.750;2023-08-24T00:32:31;0.20;;;0.20;;
60292;SDS011;52402;52.670;6.750;2023-08-24T00:35:04;0.20;;;0.20;;
60292;SDS011;52402;52.670;6.750;2023-08-24T00:37:34;0.30;;;0.30;;
60292;SDS011;52402;52.670;6.750;2023-08-24T00:40:00;0.20;;;0.20;;
60292;SDS011;52402;52.670;6.750;2023-08-24T00:42:38;0.20;;;0.20;;
60292;SDS011;52402;52.670;6.750;2023-08-24T00:45:06;0.20;;;0.20;;
60292;SDS011;52402;52.670;6.750;2023-08-24T00:47:34;0.20;;;0.20;;
60292;SDS011;52402;52.670;6.750;2023-08-24T00:50:01;0.30;;;0.30;;
60292;SDS011;52402;52.670;6.750;2023-08-24T00:52:29;0.20;;;0.20;;
60292;SDS011;52402;52.670;6.750;2023-08-24T00:54:58;0.20;;;0.20;;
60292;SDS011;52402;52.670;6.750;2023-08-24T00:57:25;0.30;;;0.30;;
60292;SDS011;52402;52.670;6.750;2023-08-24T00:59:52;0.20;;;0.20;;
60292;SDS011;52402;52.670;6.750;2023-08-24T01:02:18;0.30;;;0.30;;
60292;SDS011;52402;52.670;6.750;2023-08-24T01:04:43;0.20;;;0.20;;
60292;SDS011;52402;52.670;6.750;2023-08-24T01:07:12;0.20;;;0.20;;
60292;SDS011;52402;52.670;6.750;2023-08-24T01:09:38;0.28;;;0.28;;
60292;SDS011;52402;52.670;6.750;2023-08-24T01:12:22;0.20;;;0.20;;
60292;SDS011;52402;52.670;6.750;2023-08-24T01:15:09;0.22;;;0.22;;
60292;SDS011;52402;52.670;6.750;2023-08-24T01:17:41;0.20;;;0.20;;
60292;SDS011;52402;52.670;6.750;2023-08-24T01:20:08;0.25;;;0.25;;
60292;SDS011;52402;52.670;6.750;2023-08-24T01:22:57;0.22;;;0.22;;
60292;SDS011;52402;52.670;6.750;2023-08-24T01:25:40;0.20;;;0.20;;
60292;SDS011;52402;52.670;6.750;2023-08-24T01:28:30;0.20;;;0.20;;
60292;SDS011;52402;52.670;6.750;2023-08-24T01:30:57;0.20;;;0.20;;
60292;SDS011;52402;52.670;6.750;2023-08-24T01:33:22;0.20;;;0.20;;
60292;SDS011;52402;52.670;6.750;2023-08-24T01:35:48;0.20;;;0.20;;
60292;SDS011;52402;52.670;6.750;2023-08-24T01:38:14;0.20;;;0.20;;
60292;SDS011;52402;52.670;6.750;2023-08-24T01:43:30;0.20;;;0.20;;
60292;SDS011;52402;52.670;6.750;2023-08-24T01:45:59;0.20;;;0.20;;
60292;SDS011;52402;52.670;6.750;2023-08-24T01:48:27;0.30;;;0.30;;
60292;SDS011;52402;52.670;6.750;2023-08-24T01:50:53;0.20;;;0.20;;
60292;SDS011;52402;52.670;6.750;2023-08-24T01:53:20;0.20;;;0.20;;
60292;SDS011;52402;52.670;6.750;2023-08-24T01:55:46;0.20;;;0.20;;
60292;SDS011;52402;52.670;6.750;2023-08-24T01:58:12;0.20;;;0.20;;
60292;SDS011;52402;52.670;6.750;2023-08-24T02:00:37;0.20;;;0.20;;
60292;SDS011;52402;52.670;6.750;2023-08-24T02:03:03;0.20;;;0.20;;
60292;SDS011;52402;52.670;6.750;2023-08-24T02:05:29;0.20;;;0.20;;
60292;SDS011;52402;52.670;6.750;2023-08-24T02:07:55;0.20;;;0.20;;
60292;SDS011;52402;52.670;6.750;2023-08-24T02:10:22;0.20;;;0.20;;
60292;SDS011;52402;52.670;6.750;2023-08-24T02:12:48;0.20;;;0.20;;
60292;SDS011;52402;52.670;6.750;2023-08-24T02:15:13;0.20;;;0.20;;
60292;SDS011;52402;52.670;6.750;2023-08-24T02:17:39;0.20;;;0.20;;
60292;SDS011;52402;52.670;6.750;2023-08-24T02:20:05;0.20;;;0.20;;
60292;SDS011;52402;52.670;6.750;2023-08-24T02:22:33;0.20;;;0.20;;
60292;SDS011;52402;52.670;6.750;2023-08-24T02:24:59;0.20;;;0.20;;
60292;SDS011;52402;52.670;6.750;2023-08-24T02:27:26;0.30;;;0.30;;
60292;SDS011;52402;52.670;6.750;2023-08-24T02:29:51;0.20;;;0.20;;
60292;SDS011;52402;52.670;6.750;2023-08-24T02:32:17;0.20;;;0.20;;
60292;SDS011;52402;52.670;6.750;2023-08-24T02:34:43;0.30;;;0.30;;
60292;SDS011;52402;52.670;6.750;2023-08-24T02:37:09;0.22;;;0.22;;
60292;SDS011;52402;52.670;6.750;2023-08-24T02:39:34;0.20;;;0.20;;
60292;SDS011;52402;52.670;6.750;2023-08-24T02:42:00;0.20;;;0.20;;
60292;SDS011;52402;52.670;6.750;2023-08-24T02:44:27;0.20;;;0.20;;
60292;SDS011;52402;52.670;6.750;2023-08-24T02:46:53;0.20;;;0.20;;
60292;SDS011;52402;52.670;6.750;2023-08-24T02:49:20;0.20;;;0.20;;
60292;SDS011;52402;52.670;6.750;2023-08-24T02:51:46;0.20;;;0.20;;
60292;SDS011;52402;52.670;6.750;2023-08-24T02:54:11;0.30;;;0.30;;
60292;SDS011;52402;52.670;6.750;2023-08-24T02:56:37;0.20;;;0.20;;
60292;SDS011;52402;52.670;6.750;2023-08-24T02:59:02;0.20;;;0.20;;
60292;SDS011;52402;52.670;6.750;2023-08-24T03:01:28;0.20;;;0.20;;
60292;SDS011;52402;52.670;6.750;2023-08-24T03:03:54;0.20;;;0.20;;
60292;SDS011;52402;52.670;6.750;2023-08-24T03:06:19;0.30;;;0.30;;
60292;SDS011;52402;52.670;6.750;2023-08-24T03:08:45;0.20;;;0.20;;
60292;SDS011;52402;52.670;6.750;2023-08-24T03:11:10;0.20;;;0.20;;
60292;SDS011;52402;52.670;6.750;2023-08-24T03:13:37;0.20;;;0.20;;
60292;SDS011;52402;52.670;6.750;2023-08-24T03:16:06;0.30;;;0.30;;
60292;SDS011;52402;52.670;6.750;2023-08-24T03:18:32;0.20;;;0.20;;
60292;SDS011;52402;52.670;6.750;2023-08-24T03:20:58;0.20;;;0.20;;
60292;SDS011;52402;52.670;6.750;2023-08-24T03:23:24;0.20;;;0.20;;
60292;SDS011;52402;52.670;6.750;2023-08-24T03:25:49;0.20;;;0.20;;
60292;SDS011;52402;52.670;6.750;2023-08-24T03:28:15;0.30;;;0.30;;
60292;SDS011;52402;52.670;6.750;2023-08-24T03:30:48;0.20;;;0.20;;
60292;SDS011;52402;52.670;6.750;2023-08-24T03:33:15;0.20;;;0.20;;
60292;SDS011;52402;52.670;6.750;2023-08-24T03:35:41;0.20;;;0.20;;
60292;SDS011;52402;52.670;6.750;2023-08-24T03:38:07;0.20;;;0.20;;
60292;SDS011;52402;52.670;6.750;2023-08-24T03:40:33;0.20;;;0.20;;
60292;SDS011;52402;52.670;6.750;2023-08-24T03:43:00;0.20;;;0.20;;
60292;SDS011;52402;52.670;6.750;2023-08-24T03:45:27;0.20;;;0.20;;
60292;SDS011;52402;52.670;6.750;2023-08-24T03:47:54;0.20;;;0.20;;
60292;SDS011;52402;52.670;6.750;2023-08-24T03:50:20;0.20;;;0.20;;
60292;SDS011;52402;52.670;6.750;2023-08-24T03:52:47;0.20;;;0.20;;
60292;SDS011;52402;52.670;6.750;2023-08-24T03:55:14;0.20;;;0.20;;
60292;SDS011;52402;52.670;6.750;2023-08-24T03:57:40;0.20;;;0.20;;
60292;SDS011;52402;52.670;6.750;2023-08-24T04:00:06;0.20;;;0.20;;
60292;SDS011;52402;52.670;6.750;2023-08-24T04:02:36;0.20;;;0.20;;
60292;SDS011;52402;52.670;6.750;2023-08-24T04:05:03;0.20;;;0.20;;
60292;SDS011;52402;52.670;6.750;2023-08-24T04:07:28;0.20;;;0.20;;
60292;SDS011;52402;52.670;6.750;2023-08-24T04:09:54;0.20;;;0.20;;
60292;SDS011;52402;52.670;6.750;2023-08-24T04:12:20;0.30;;;0.30;;
60292;SDS011;52402;52.670;6.750;2023-08-24T04:14:45;0.30;;;0.30;;
60292;SDS011;52402;52.670;6.750;2023-08-24T04:17:11;0.20;;;0.20;;
60292;SDS011;52402;52.670;6.750;2023-08-24T04:19:40;0.20;;;0.20;;
60292;SDS011;52402;52.670;6.750;2023-08-24T04:22:05;0.20;;;0.20;;
60292;SDS011;52402;52.670;6.750;2023-08-24T04:24:34;0.20;;;0.20;;
60292;SDS011;52402;52.670;6.750;2023-08-24T04:26:59;0.20;;;0.20;;
60292;SDS011;52402;52.670;6.750;2023-08-24T04:29:25;0.20;;;0.20;;
60292;SDS011;52402;52.670;6.750;2023-08-24T04:31:50;0.20;;;0.20;;
60292;SDS011;52402;52.670;6.750;2023-08-24T04:34:16;0.20;;;0.20;;
60292;SDS011;52402;52.670;6.750;2023-08-24T04:36:42;0.20;;;0.20;;
60292;SDS011;52402;52.670;6.750;2023-08-24T04:39:07;0.28;;;0.28;;
60292;SDS011;52402;52.670;6.750;2023-08-24T04:41:33;0.20;;;0.20;;
60292;SDS011;52402;52.670;6.750;2023-08-24T04:43:58;0.20;;;0.20;;
60292;SDS011;52402;52.670;6.750;2023-08-24T04:46:24;0.20;;;0.20;;
60292;SDS011;52402;52.670;6.750;2023-08-24T04:48:51;0.20;;;0.20;;
60292;SDS011;52402;52.670;6.750;2023-08-24T04:51:17;0.20;;;0.20;;
60292;SDS011;52402;52.670;6.750;2023-08-24T04:53:42;0.20;;;0.20;;
60292;SDS011;52402;52.670;6.750;2023-08-24T04:56:08;0.20;;;0.20;;
60292;SDS011;52402;52.670;6.750;2023-08-24T04:58:33;0.20;;;0.20;;
60292;SDS011;52402;52.670;6.750;2023-08-24T05:00:59;0.20;;;0.20;;
60292;SDS011;52402;52.670;6.750;2023-08-24T05:03:25;0.20;;;0.20;;
60292;SDS011;52402;52.670;6.750;2023-08-24T05:05:51;0.20;;;0.20;;
60292;SDS011;52402;52.670;6.750;2023-08-24T05:08:17;0.20;;;0.20;;
60292;SDS011;52402;52.670;6.750;2023-08-24T05:10:43;0.20;;;0.20;;
60292;SDS011;52402;52.670;6.750;2023-08-24T05:13:09;0.28;;;0.28;;
60292;SDS011;52402;52.670;6.750;2023-08-24T05:15:34;0.20;;;0.20;;
60292;SDS011;52402;52.670;6.750;2023-08-24T05:18:00;0.20;;;0.20;;
60292;SDS011;52402;52.670;6.750;2023-08-24T05:20:26;0.20;;;0.20;;
60292;SDS011;52402;52.670;6.750;2023-08-24T05:22:52;0.20;;;0.20;;
60292;SDS011;52402;52.670;6.750;2023-08-24T05:25:20;0.20;;;0.20;;
60292;SDS011;52402;52.670;6.750;2023-08-24T05:27:46;0.30;;;0.30;;
60292;SDS011;52402;52.670;6.750;2023-08-24T05:30:12;0.20;;;0.20;;
60292;SDS011;52402;52.670;6.750;2023-08-24T05:32:38;0.20;;;0.20;;
60292;SDS011;52402;52.670;6.750;2023-08-24T05:35:04;0.20;;;0.20;;
60292;SDS011;52402;52.670;6.750;2023-08-24T05:37:33;0.20;;;0.20;;
60292;SDS011;52402;52.670;6.750;2023-08-24T05:39:59;0.20;;;0.20;;
60292;SDS011;52402;52.670;6.750;2023-08-24T05:42:26;0.20;;;0.20;;
60292;SDS011;52402;52.670;6.750;2023-08-24T05:44:52;0.30;;;0.30;;
60292;SDS011;52402;52.670;6.750;2023-08-24T05:47:17;0.22;;;0.22;;
60292;SDS011;52402;52.670;6.750;2023-08-24T05:49:43;0.30;;;0.30;;
60292;SDS011;52402;52.670;6.750;2023-08-24T05:52:10;0.30;;;0.30;;
60292;SDS011;52402;52.670;6.750;2023-08-24T05:54:37;0.28;;;0.28;;
60292;SDS011;52402;52.670;6.750;2023-08-24T05:57:03;0.25;;;0.25;;
60292;SDS011;52402;52.670;6.750;2023-08-24T05:59:29;0.20;;;0.20;;
60292;SDS011;52402;52.670;6.750;2023-08-24T06:01:57;0.30;;;0.30;;
60292;SDS011;52402;52.670;6.750;2023-08-24T06:04:23;0.20;;;0.20;;
60292;SDS011;52402;52.670;6.750;2023-08-24T06:06:49;0.20;;;0.20;;
60292;SDS011;52402;52.670;6.750;2023-08-24T06:09:14;0.30;;;0.30;;
60292;SDS011;52402;52.670;6.750;2023-08-24T06:11:40;0.20;;;0.20;;
60292;SDS011;52402;52.670;6.750;2023-08-24T06:14:06;0.20;;;0.20;;
60292;SDS011;52402;52.670;6.750;2023-08-24T06:16:32;0.20;;;0.20;;
60292;SDS011;52402;52.670;6.750;2023-08-24T06:18:58;0.20;;;0.20;;
60292;SDS011;52402;52.670;6.750;2023-08-24T06:21:23;0.10;;;0.10;;
60292;SDS011;52402;52.670;6.750;2023-08-24T06:23:49;0.20;;;0.20;;
60292;SDS011;52402;52.670;6.750;2023-08-24T06:26:15;0.20;;;0.20;;
60292;SDS011;52402;52.670;6.750;2023-08-24T06:28:40;0.20;;;0.20;;
60292;SDS011;52402;52.670;6.750;2023-08-24T06:31:06;0.20;;;0.20;;
60292;SDS011;52402;52.670;6.750;2023-08-24T06:33:35;0.20;;;0.20;;
60292;SDS011;52402;52.670;6.750;2023-08-24T06:36:02;0.20;;;0.20;;
60292;SDS011;52402;52.670;6.750;2023-08-24T06:38:30;0.20;;;0.20;;
60292;SDS011;52402;52.670;6.750;2023-08-24T06:40:57;0.20;;;0.20;;
60292;SDS011;52402;52.670;6.750;2023-08-24T06:43:23;0.22;;;0.22;;
60292;SDS011;52402;52.670;6.750;2023-08-24T06:45:50;0.20;;;0.20;;
60292;SDS011;52402;52.670;6.750;2023-08-24T06:48:15;0.20;;;0.20;;
60292;SDS011;52402;52.670;6.750;2023-08-24T06:50:43;0.20;;;0.20;;
60292;SDS011;52402;52.670;6.750;2023-08-24T06:53:08;0.20;;;0.20;;
60292;SDS011;52402;52.670;6.750;2023-08-24T06:55:34;0.20;;;0.20;;
60292;SDS011;52402;52.670;6.750;2023-08-24T06:58:01;0.20;;;0.20;;
60292;SDS011;52402;52.670;6.750;2023-08-24T07:00:30;0.20;;;0.20;;
60292;SDS011;52402;52.670;6.750;2023-08-24T07:02:56;0.20;;;0.20;;
60292;SDS011;52402;52.670;6.750;2023-08-24T07:05:22;0.20;;;0.20;;
60292;SDS011;52402;52.670;6.750;2023-08-24T07:07:51;0.20;;;0.20;;
60292;SDS011;52402;52.670;6.750;2023-08-24T07:10:18;0.20;;;0.20;;
60292;SDS011;52402;52.670;6.750;2023-08-24T07:12:45;0.20;;;0.20;;
60292;SDS011;52402;52.670;6.750;2023-08-24T07:15:11;0.20;;;0.20;;
60292;SDS011;52402;52.670;6.750;2023-08-24T07:17:37;0.20;;;0.20;;
60292;SDS011;52402;52.670;6.750;2023-08-24T07:20:03;0.20;;;0.20;;
60292;SDS011;52402;52.670;6.750;2023-08-24T07:22:36;0.20;;;0.20;;
60292;SDS011;52402;52.670;6.750;2023-08-24T07:25:02;0.20;;;0.20;;
60292;SDS011;52402;52.670;6.750;2023-08-24T07:27:31;0.20;;;0.20;;
60292;SDS011;52402;52.670;6.750;2023-08-24T07:29:57;0.20;;;0.20;;
60292;SDS011;52402;52.670;6.750;2023-08-24T07:32:24;0.20;;;0.20;;
60292;SDS011;52402;52.670;6.750;2023-08-24T07:34:58;0.30;;;0.30;;
60292;SDS011;52402;52.670;6.750;2023-08-24T07:37:27;0.30;;;0.30;;
60292;SDS011;52402;52.670;6.750;2023-08-24T07:39:53;0.25;;;0.25;;
60292;SDS011;52402;52.670;6.750;2023-08-24T07:42:19;0.30;;;0.30;;
60292;SDS011;52402;52.670;6.750;2023-08-24T07:44:46;0.20;;;0.20;;
60292;SDS011;52402;52.670;6.750;2023-08-24T07:47:18;0.20;;;0.20;;
60292;SDS011;52402;52.670;6.750;2023-08-24T07:49:43;0.20;;;0.20;;
60292;SDS011;52402;52.670;6.750;2023-08-24T07:52:10;0.20;;;0.20;;
60292;SDS011;52402;52.670;6.750;2023-08-24T07:54:37;0.22;;;0.22;;
60292;SDS011;52402;52.670;6.750;2023-08-24T07:57:04;0.20;;;0.20;;
60292;SDS011;52402;52.670;6.750;2023-08-24T07:59:30;0.20;;;0.20;;
60292;SDS011;52402;52.670;6.750;2023-08-24T08:01:56;0.28;;;0.28;;
60292;SDS011;52402;52.670;6.750;2023-08-24T08:04:22;0.20;;;0.20;;
60292;SDS011;52402;52.670;6.750;2023-08-24T08:06:47;0.20;;;0.20;;
60292;SDS011;52402;52.670;6.750;2023-08-24T08:09:13;0.20;;;0.20;;
60292;SDS011;52402;52.670;6.750;2023-08-24T08:11:39;0.20;;;0.20;;
60292;SDS011;52402;52.670;6.750;2023-08-24T08:14:04;0.20;;;0.20;;
60292;SDS011;52402;52.670;6.750;2023-08-24T08:16:30;0.20;;;0.20;;
60292;SDS011;52402;52.670;6.750;2023-08-24T08:18:57;0.20;;;0.20;;
60292;SDS011;52402;52.670;6.750;2023-08-24T08:21:30;0.20;;;0.20;;
60292;SDS011;52402;52.670;6.750;2023-08-24T08:23:56;0.20;;;0.20;;
60292;SDS011;52402;52.670;6.750;2023-08-24T08:26:22;0.20;;;0.20;;
60292;SDS011;52402;52.670;6.750;2023-08-24T08:28:48;0.20;;;0.20;;
60292;SDS011;52402;52.670;6.750;2023-08-24T08:31:13;0.30;;;0.30;;
60292;SDS011;52402;52.670;6.750;2023-08-24T08:33:39;0.20;;;0.20;;
60292;SDS011;52402;52.670;6.750;2023-08-24T08:36:08;0.20;;;0.20;;
60292;SDS011;52402;52.670;6.750;2023-08-24T08:38:34;0.20;;;0.20;;
60292;SDS011;52402;52.670;6.750;2023-08-24T08:41:03;0.20;;;0.20;;
60292;SDS011;52402;52.670;6.750;2023-08-24T08:45:55;0.20;;;0.20;;
60292;SDS011;52402;52.670;6.750;2023-08-24T08:48:22;0.20;;;0.20;;
60292;SDS011;52402;52.670;6.750;2023-08-24T08:50:57;0.20;;;0.20;;
60292;SDS011;52402;52.670;6.750;2023-08-24T08:53:23;0.30;;;0.30;;
60292;SDS011;52402;52.670;6.750;2023-08-24T08:55:52;0.20;;;0.20;;
60292;SDS011;52402;52.670;6.750;2023-08-24T08:58:20;0.20;;;0.20;;
60292;SDS011;52402;52.670;6.750;2023-08-24T09:00:46;0.20;;;0.20;;
60292;SDS011;52402;52.670;6.750;2023-08-24T09:03:13;0.20;;;0.20;;
60292;SDS011;52402;52.670;6.750;2023-08-24T09:05:42;0.20;;;0.20;;
60292;SDS011;52402;52.670;6.750;2023-08-24T09:08:08;0.20;;;0.20;;
60292;SDS011;52402;52.670;6.750;2023-08-24T09:10:34;0.20;;;0.20;;
60292;SDS011;52402;52.670;6.750;2023-08-24T09:13:00;0.20;;;0.20;;
60292;SDS011;52402;52.670;6.750;2023-08-24T09:15:26;0.20;;;0.20;;
60292;SDS011;52402;52.670;6.750;2023-08-24T09:17:53;0.20;;;0.20;;
60292;SDS011;52402;52.670;6.750;2023-08-24T09:20:19;0.20;;;0.20;;
60292;SDS011;52402;52.670;6.750;2023-08-24T09:22:45;0.20;;;0.20;;
60292;SDS011;52402;52.670;6.750;2023-08-24T09:25:11;0.30;;;0.30;;
60292;SDS011;52402;52.670;6.750;2023-08-24T09:27:37;0.20;;;0.20;;
60292;SDS011;52402;52.670;6.750;2023-08-24T09:30:02;0.30;;;0.30;;
60292;SDS011;52402;52.670;6.750;2023-08-24T09:32:31;0.20;;;0.20;;
60292;SDS011;52402;52.670;6.750;2023-08-24T09:35:03;0.20;;;0.20;;
60292;SDS011;52402;52.670;6.750;2023-08-24T09:37:36;0.20;;;0.20;;
60292;SDS011;52402;52.670;6.750;2023-08-24T09:40:13;0.20;;;0.20;;
60292;SDS011;52402;52.670;6.750;2023-08-24T09:42:43;0.20;;;0.20;;
60292;SDS011;52402;52.670;6.750;2023-08-24T09:45:11;0.15;;;0.15;;
60292;SDS011;52402;52.670;6.750;2023-08-24T09:47:39;0.25;;;0.25;;
60292;SDS011;52402;52.670;6.750;2023-08-24T09:50:05;0.22;;;0.22;;
60292;SDS011;52402;52.670;6.750;2023-08-24T09:52:32;0.20;;;0.20;;
60292;SDS011;52402;52.670;6.750;2023-08-24T09:55:00;0.25;;;0.25;;
60292;SDS011;52402;52.670;6.750;2023-08-24T09:57:31;0.20;;;0.20;;
60292;SDS011;52402;52.670;6.750;2023-08-24T10:00:01;0.20;;;0.20;;
60292;SDS011;52402;52.670;6.750;2023-08-24T10:02:31;0.25;;;0.25;;
60292;SDS011;52402;52.670;6.750;2023-08-24T10:05:01;0.30;;;0.30;;
60292;SDS011;52402;52.670;6.750;2023-08-24T10:07:29;0.20;;;0.20;;
60292;SDS011;52402;52.670;6.750;2023-08-24T10:10:02;0.20;;;0.20;;
60292;SDS011;52402;52.670;6.750;2023-08-24T10:12:28;0.30;;;0.30;;
60292;SDS011;52402;52.670;6.750;2023-08-24T10:15:00;0.30;;;0.30;;
60292;SDS011;52402;52.670;6.750;2023-08-24T10:17:42;0.30;;;0.30;;
60292;SDS011;52402;52.670;6.750;2023-08-24T10:20:09;0.30;;;0.30;;
60292;SDS011;52402;52.670;6.750;2023-08-24T10:22:35;0.28;;;0.28;;
60292;SDS011;52402;52.670;6.750;2023-08-24T10:25:03;0.20;;;0.20;;
60292;SDS011;52402;52.670;6.750;2023-08-24T10:27:29;0.30;;;0.30;;
60292;SDS011;52402;52.670;6.750;2023-08-24T10:29:56;0.20;;;0.20;;
60292;SDS011;52402;52.670;6.750;2023-08-24T10:32:24;0.30;;;0.30;;
60292;SDS011;52402;52.670;6.750;2023-08-24T10:34:51;0.30;;;0.30;;
60292;SDS011;52402;52.670;6.750;2023-08-24T10:37:17;0.30;;;0.30;;
60292;SDS011;52402;52.670;6.750;2023-08-24T10:39:51;0.20;;;0.20;;
60292;SDS011;52402;52.670;6.750;2023-08-24T10:42:16;0.20;;;0.20;;
60292;SDS011;52402;52.670;6.750;2023-08-24T10:44:45;0.30;;;0.30;;
60292;SDS011;52402;52.670;6.750;2023-08-24T10:47:15;0.25;;;0.25;;
60292;SDS011;52402;52.670;6.750;2023-08-24T10:49:44;0.28;;;0.28;;
60292;SDS011;52402;52.670;6.750;2023-08-24T10:52:23;0.30;;;0.30;;
60292;SDS011;52402;52.670;6.750;2023-08-24T10:54:51;0.25;;;0.25;;
60292;SDS011;52402;52.670;6.750;2023-08-24T10:57:18;0.40;;;0.40;;
60292;SDS011;52402;52.670;6.750;2023-08-24T11:08:12;0.30;;;0.30;;
60292;SDS011;52402;52.670;6.750;2023-08-24T11:13:10;0.32;;;0.32;;
60292;SDS011;52402;52.670;6.750;2023-08-24T11:15:48;0.30;;;0.30;;
60292;SDS011;52402;52.670;6.750;2023-08-24T11:18:23;0.30;;;0.30;;
60292;SDS011;52402;52.670;6.750;2023-08-24T11:23:17;0.22;;;0.22;;
60292;SDS011;52402;52.670;6.750;2023-08-24T11:25:45;0.30;;;0.30;;
60292;SDS011;52402;52.670;6.750;2023-08-24T11:28:11;0.30;;;0.30;;
60292;SDS011;52402;52.670;6.750;2023-08-24T11:30:41;0.30;;;0.30;;
60292;SDS011;52402;52.670;6.750;2023-08-24T11:33:08;0.30;;;0.30;;
60292;SDS011;52402;52.670;6.750;2023-08-24T11:35:36;0.30;;;0.30;;
60292;SDS011;52402;52.670;6.750;2023-08-24T11:38:04;0.30;;;0.30;;
60292;SDS011;52402;52.670;6.750;2023-08-24T11:40:29;0.30;;;0.30;;
60292;SDS011;52402;52.670;6.750;2023-08-24T11:42:58;0.20;;;0.20;;
60292;SDS011;52402;52.670;6.750;2023-08-24T11:45:24;0.30;;;0.30;;
60292;SDS011;52402;52.670;6.750;2023-08-24T11:47:54;0.30;;;0.30;;
60292;SDS011;52402;52.670;6.750;2023-08-24T11:50:20;0.30;;;0.30;;
60292;SDS011;52402;52.670;6.750;2023-08-24T11:52:47;0.30;;;0.30;;
60292;SDS011;52402;52.670;6.750;2023-08-24T11:55:13;0.20;;;0.20;;
60292;SDS011;52402;52.670;6.750;2023-08-24T11:57:39;0.30;;;0.30;;
60292;SDS011;52402;52.670;6.750;2023-08-24T12:00:05;0.30;;;0.30;;
60292;SDS011;52402;52.670;6.750;2023-08-24T12:02:32;0.30;;;0.30;;
60292;SDS011;52402;52.670;6.750;2023-08-24T12:04:58;0.30;;;0.30;;
60292;SDS011;52402;52.670;6.750;2023-08-24T12:07:24;0.30;;;0.30;;
60292;SDS011;52402;52.670;6.750;2023-08-24T12:09:52;0.30;;;0.30;;
60292;SDS011;52402;52.670;6.750;2023-08-24T12:12:18;0.30;;;0.30;;
60292;SDS011;52402;52.670;6.750;2023-08-24T12:14:46;0.30;;;0.30;;
60292;SDS011;52402;52.670;6.750;2023-08-24T12:17:12;0.30;;;0.30;;
60292;SDS011;52402;52.670;6.750;2023-08-24T12:19:45;0.30;;;0.30;;
60292;SDS011;52402;52.670;6.750;2023-08-24T12:22:23;0.30;;;0.30;;
60292;SDS011;52402;52.670;6.750;2023-08-24T12:24:49;0.30;;;0.30;;
60292;SDS011;52402;52.670;6.750;2023-08-24T12:27:18;0.40;;;0.40;;
60292;SDS011;52402;52.670;6.750;2023-08-24T12:29:47;0.30;;;0.30;;
60292;SDS011;52402;52.670;6.750;2023-08-24T12:32:13;0.30;;;0.30;;
60292;SDS011;52402;52.670;6.750;2023-08-24T12:34:45;0.30;;;0.30;;
60292;SDS011;52402;52.670;6.750;2023-08-24T12:37:11;0.30;;;0.30;;
60292;SDS011;52402;52.670;6.750;2023-08-24T12:39:38;0.32;;;0.32;;
60292;SDS011;52402;52.670;6.750;2023-08-24T12:42:04;0.30;;;0.30;;
60292;SDS011;52402;52.670;6.750;2023-08-24T12:44:31;0.30;;;0.30;;
60292;SDS011;52402;52.670;6.750;2023-08-24T12:46:57;0.30;;;0.30;;
60292;SDS011;52402;52.670;6.750;2023-08-24T12:49:23;0.40;;;0.40;;
60292;SDS011;52402;52.670;6.750;2023-08-24T12:51:49;0.30;;;0.30;;
60292;SDS011;52402;52.670;6.750;2023-08-24T12:54:15;0.40;;;0.40;;
60292;SDS011;52402;52.670;6.750;2023-08-24T12:56:40;0.30;;;0.30;;
60292;SDS011;52402;52.670;6.750;2023-08-24T12:59:06;0.40;;;0.40;;
60292;SDS011;52402;52.670;6.750;2023-08-24T13:01:33;0.30;;;0.30;;
60292;SDS011;52402;52.670;6.750;2023-08-24T13:03:58;0.30;;;0.30;;
60292;SDS011;52402;52.670;6.750;2023-08-24T13:06:24;0.30;;;0.30;;
60292;SDS011;52402;52.670;6.750;2023-08-24T13:08:53;0.40;;;0.40;;
60292;SDS011;52402;52.670;6.750;2023-08-24T13:11:19;0.40;;;0.40;;
60292;SDS011;52402;52.670;6.750;2023-08-24T13:13:44;0.30;;;0.30;;
60292;SDS011;52402;52.670;6.750;2023-08-24T13:16:13;0.40;;;0.40;;
60292;SDS011;52402;52.670;6.750;2023-08-24T13:18:39;0.32;;;0.32;;
60292;SDS011;52402;52.670;6.750;2023-08-24T13:21:05;0.32;;;0.32;;
60292;SDS011;52402;52.670;6.750;2023-08-24T13:23:31;0.40;;;0.40;;
60292;SDS011;52402;52.670;6.750;2023-08-24T13:25:57;0.40;;;0.40;;
60292;SDS011;52402;52.670;6.750;2023-08-24T13:28:23;0.40;;;0.40;;
60292;SDS011;52402;52.670;6.750;2023-08-24T13:30:48;0.30;;;0.30;;
60292;SDS011;52402;52.670;6.750;2023-08-24T13:33:14;0.30;;;0.30;;
60292;SDS011;52402;52.670;6.750;2023-08-24T13:35:40;0.40;;;0.40;;
60292;SDS011;52402;52.670;6.750;2023-08-24T13:38:06;0.30;;;0.30;;
60292;SDS011;52402;52.670;6.750;2023-08-24T13:40:32;0.40;;;0.40;;
60292;SDS011;52402;52.670;6.750;2023-08-24T13:42:57;0.30;;;0.30;;
60292;SDS011;52402;52.670;6.750;2023-08-24T13:45:23;0.40;;;0.40;;
60292;SDS011;52402;52.670;6.750;2023-08-24T13:47:49;0.43;;;0.43;;
60292;SDS011;52402;52.670;6.750;2023-08-24T13:50:15;0.40;;;0.40;;
60292;SDS011;52402;52.670;6.750;2023-08-24T13:52:40;0.30;;;0.30;;
60292;SDS011;52402;52.670;6.750;2023-08-24T13:55:06;0.40;;;0.40;;
60292;SDS011;52402;52.670;6.750;2023-08-24T13:57:32;0.40;;;0.40;;
60292;SDS011;52402;52.670;6.750;2023-08-24T13:59:58;0.40;;;0.40;;
60292;SDS011;52402;52.670;6.750;2023-08-24T14:02:24;0.40;;;0.40;;
60292;SDS011;52402;52.670;6.750;2023-08-24T14:04:51;0.30;;;0.30;;
60292;SDS011;52402;52.670;6.750;2023-08-24T14:07:17;0.32;;;0.32;;
60292;SDS011;52402;52.670;6.750;2023-08-24T14:09:42;0.40;;;0.40;;
60292;SDS011;52402;52.670;6.750;2023-08-24T14:12:08;0.30;;;0.30;;
60292;SDS011;52402;52.670;6.750;2023-08-24T14:14:34;0.35;;;0.35;;
60292;SDS011;52402;52.670;6.750;2023-08-24T14:16:59;0.40;;;0.40;;
60292;SDS011;52402;52.670;6.750;2023-08-24T14:19:25;0.40;;;0.40;;
60292;SDS011;52402;52.670;6.750;2023-08-24T14:21:51;0.30;;;0.30;;
60292;SDS011;52402;52.670;6.750;2023-08-24T14:24:17;0.40;;;0.40;;
60292;SDS011;52402;52.670;6.750;2023-08-24T14:26:43;0.40;;;0.40;;
60292;SDS011;52402;52.670;6.750;2023-08-24T14:29:12;0.40;;;0.40;;
60292;SDS011;52402;52.670;6.750;2023-08-24T14:31:39;0.40;;;0.40;;
60292;SDS011;52402;52.670;6.750;2023-08-24T14:34:05;0.30;;;0.30;;
60292;SDS011;52402;52.670;6.750;2023-08-24T14:36:30;0.40;;;0.40;;
60292;SDS011;52402;52.670;6.750;2023-08-24T14:38:58;0.30;;;0.30;;
60292;SDS011;52402;52.670;6.750;2023-08-24T14:41:24;0.30;;;0.30;;
60292;SDS011;52402;52.670;6.750;2023-08-24T14:43:51;0.30;;;0.30;;
60292;SDS011;52402;52.670;6.750;2023-08-24T14:46:16;0.40;;;0.40;;
60292;SDS011;52402;52.670;6.750;2023-08-24T14:48:42;0.30;;;0.30;;
60292;SDS011;52402;52.670;6.750;2023-08-24T14:51:08;0.30;;;0.30;;
60292;SDS011;52402;52.670;6.750;2023-08-24T14:53:33;0.30;;;0.30;;
60292;SDS011;52402;52.670;6.750;2023-08-24T14:56:00;0.30;;;0.30;;
60292;SDS011;52402;52.670;6.750;2023-08-24T14:58:26;0.30;;;0.30;;
60292;SDS011;52402;52.670;6.750;2023-08-24T15:00:53;0.30;;;0.30;;
60292;SDS011;52402;52.670;6.750;2023-08-24T15:03:22;0.30;;;0.30;;
60292;SDS011;52402;52.670;6.750;2023-08-24T15:06:03;0.30;;;0.30;;